createdAt,value
2023-02-14T00:03:04.255Z,102087.75
2023-02-14T00:05:50.886Z,102134.16
2023-02-14T00:08:37.696Z,102002.63
2023-02-14T00:11:23.870Z,102074.00
2023-02-14T00:14:28.485Z,102092.53
2023-02-14T00:17:14.911Z,102151.06
2023-02-14T00:20:02.417Z,102104.59
2023-02-14T00:22:50.613Z,102140.22
2023-02-14T00:25:36.976Z,102138.97
2023-02-14T00:28:23.744Z,102092.31
2023-02-14T00:31:09.833Z,102061.28
2023-02-14T00:33:57.104Z,102035.28
2023-02-14T00:36:43.978Z,102071.25
2023-02-14T00:39:30.496Z,101988.22
2023-02-14T00:42:16.842Z,102146.88
2023-02-14T00:45:05.819Z,102043.59
2023-02-14T00:47:51.876Z,102108.97
2023-02-14T00:50:38.608Z,102141.69
2023-02-14T00:53:27.217Z,102064.63
2023-02-14T00:56:14.728Z,102016.06
2023-02-14T00:59:01.942Z,102007.56
2023-02-14T01:01:48.611Z,102142.28
2023-02-14T01:04:34.897Z,102024.41
2023-02-14T01:07:22.999Z,102042.91
2023-02-14T01:10:10.939Z,102033.53
2023-02-14T01:12:58.509Z,102086.25
2023-02-14T01:15:46.791Z,102152.06
2023-02-14T01:18:33.115Z,102107.28
2023-02-14T01:21:25.192Z,102158.53
2023-02-14T01:24:12.937Z,102149.56
2023-02-14T01:27:01.807Z,102156.41
2023-02-14T01:29:49.184Z,102052.25
2023-02-14T01:32:35.294Z,102071.78
2023-02-14T01:35:21.629Z,102165.34
2023-02-14T01:38:07.627Z,102088.22
2023-02-14T01:40:55.671Z,102059.72
2023-02-14T01:44:07.250Z,102062.19
2023-02-14T01:46:56.678Z,102078.88
2023-02-14T01:49:49.613Z,102148.25
2023-02-14T01:52:46.230Z,102065.75
2023-02-14T01:55:34.668Z,102142.63
2023-02-14T01:58:24.704Z,101972.22
2023-02-14T02:01:14.489Z,102107.19
2023-02-14T02:04:17.849Z,102054.25
2023-02-14T02:07:06.996Z,102091.75
2023-02-14T02:09:56.163Z,102041.31
2023-02-14T02:12:43.886Z,102130.88
2023-02-14T02:15:31.641Z,102046.25
2023-02-14T02:18:27.351Z,102035.22
2023-02-14T02:21:37.262Z,102039.81
2023-02-14T02:24:49.220Z,102046.31
2023-02-14T02:28:13.028Z,102125.47
2023-02-14T02:31:40.312Z,102075.03
2023-02-14T02:34:50.342Z,102131.06
2023-02-14T02:37:45.405Z,102141.03
2023-02-14T02:40:53.113Z,102132.09
2023-02-14T02:43:54.027Z,102134.16
2023-02-14T02:47:03.256Z,102132.28
2023-02-14T02:50:46.154Z,102130.22
2023-02-14T02:53:41.062Z,102044.06
2023-02-14T02:56:47.229Z,102056.09
2023-02-14T02:59:38.137Z,102141.53
2023-02-14T03:02:29.177Z,102108.75
2023-02-14T03:05:15.813Z,102011.47
2023-02-14T03:08:03.825Z,102052.75
2023-02-14T03:10:53.174Z,102097.38
2023-02-14T03:13:42.230Z,102150.31
2023-02-14T03:16:47.322Z,102142.19
2023-02-14T03:20:05.816Z,102152.34
2023-02-14T03:22:59.028Z,101984.13
2023-02-14T03:26:02.688Z,102153.56
2023-02-14T03:29:16.461Z,102156.72
2023-02-14T03:32:05.499Z,102111.25
2023-02-14T03:35:00.944Z,102143.69
2023-02-14T03:37:55.685Z,102160.97
2023-02-14T03:40:49.663Z,102082.50
2023-02-14T03:43:45.176Z,102069.41
2023-02-14T03:46:37.262Z,102022.41
2023-02-14T03:49:27.204Z,102131.88
2023-02-14T03:52:14.772Z,102165.47
2023-02-14T03:55:01.644Z,102093.13
2023-02-14T03:58:00.669Z,102090.16
2023-02-14T04:00:48.139Z,102089.22
2023-02-14T04:03:35.728Z,102055.47
2023-02-14T04:06:21.602Z,102058.75
2023-02-14T04:09:08.086Z,102105.19
2023-02-14T04:11:54.329Z,102106.69
2023-02-14T04:14:41.102Z,102124.78
2023-02-14T04:17:46.616Z,102073.72
2023-02-14T04:20:33.227Z,102106.44
2023-02-14T04:23:19.427Z,102147.13
2023-02-14T04:26:07.132Z,102117.91
2023-02-14T04:28:53.848Z,102020.31
2023-02-14T04:31:40.317Z,102059.94
2023-02-14T04:34:26.400Z,102083.72
2023-02-14T04:37:13.732Z,102056.91
2023-02-14T04:39:59.771Z,102098.38
2023-02-14T04:42:46.705Z,102092.03
2023-02-14T04:45:32.374Z,102062.66
2023-02-14T04:48:19.443Z,102104.81
2023-02-14T04:51:05.752Z,102083.47
2023-02-14T04:53:52.758Z,102048.31
2023-02-14T04:56:39.236Z,102011.22
2023-02-14T04:59:25.929Z,102077.81
2023-02-14T05:02:12.968Z,102070.78
2023-02-14T05:04:59.625Z,102067.66
2023-02-14T05:07:48.055Z,102111.88
2023-02-14T05:10:34.962Z,102087.69
2023-02-14T05:13:21.664Z,102078.03
2023-02-14T05:16:08.435Z,102105.34
2023-02-14T05:18:54.119Z,102172.09
2023-02-14T05:21:40.481Z,102129.16
2023-02-14T05:24:27.811Z,102025.88
2023-02-14T05:27:14.410Z,102168.41
2023-02-14T05:30:01.287Z,102076.28
2023-02-14T05:32:50.982Z,102158.84
2023-02-14T05:35:38.577Z,102140.50
2023-02-14T05:38:24.521Z,102108.66
2023-02-14T05:41:11.365Z,102153.47
2023-02-14T05:44:00.173Z,102041.81
2023-02-14T05:46:47.017Z,102008.44
2023-02-14T05:49:35.149Z,102064.72
2023-02-14T05:52:21.344Z,102134.91
2023-02-14T05:55:08.078Z,102058.25
2023-02-14T05:57:54.321Z,102037.63
2023-02-14T06:00:41.460Z,102051.34
2023-02-14T06:03:27.339Z,102022.84
2023-02-14T06:06:13.319Z,102075.75
2023-02-14T06:08:59.239Z,102154.50
2023-02-14T06:11:45.817Z,102113.06
2023-02-14T06:14:31.640Z,102144.91
2023-02-14T06:17:18.404Z,102059.72
2023-02-14T06:20:05.179Z,102106.19
2023-02-14T06:22:51.985Z,102051.19
2023-02-14T06:25:38.870Z,102202.22
2023-02-14T06:28:25.111Z,102111.81
2023-02-14T06:31:17.271Z,102067.84
2023-02-14T06:34:03.991Z,102147.03
2023-02-14T06:36:49.685Z,102160.78
2023-02-14T06:39:36.286Z,102118.03
2023-02-14T06:42:22.058Z,102072.66
2023-02-14T06:45:09.870Z,102204.34
2023-02-14T06:47:56.230Z,102112.69
2023-02-14T06:50:42.954Z,102139.34
2023-02-14T06:53:28.769Z,102206.44
2023-02-14T06:56:15.599Z,102065.63
2023-02-14T06:59:01.701Z,102126.84
2023-02-14T07:01:47.878Z,102164.56
2023-02-14T07:04:34.188Z,102217.69
2023-02-14T07:07:22.201Z,102215.81
2023-02-14T07:10:08.528Z,102141.44
2023-02-14T07:12:54.623Z,102108.75
2023-02-14T07:15:40.835Z,102179.78
2023-02-14T07:18:26.939Z,102188.97
2023-02-14T07:21:12.572Z,102211.88
2023-02-14T07:23:58.834Z,102175.22
2023-02-14T07:26:44.713Z,102142.72
2023-02-14T07:29:30.859Z,102153.94
2023-02-14T07:32:16.947Z,102135.41
2023-02-14T07:35:04.355Z,102175.22
2023-02-14T07:37:51.195Z,102091.69
2023-02-14T07:40:38.527Z,102179.38
2023-02-14T07:43:24.718Z,102108.56
2023-02-14T07:46:11.042Z,102194.94
2023-02-14T07:48:57.443Z,102114.19
2023-02-14T07:51:44.100Z,102136.22
2023-02-14T07:54:29.999Z,102136.00
2023-02-14T07:57:16.847Z,102193.25
2023-02-14T08:00:04.727Z,102134.50
2023-02-14T08:02:58.050Z,102249.66
2023-02-14T08:05:44.047Z,102181.72
2023-02-14T08:08:31.499Z,102189.00
2023-02-14T08:11:37.370Z,102151.97
2023-02-14T08:14:24.101Z,102176.13
2023-02-14T08:17:13.504Z,102121.34
2023-02-14T08:20:01.903Z,102168.97
2023-02-14T08:22:48.111Z,102100.91
2023-02-14T08:25:35.083Z,102120.44
2023-02-14T08:28:22.532Z,102209.63
2023-02-14T08:31:09.768Z,102249.34
2023-02-14T08:33:56.173Z,102124.28
2023-02-14T08:36:43.143Z,102255.06
2023-02-14T08:39:29.372Z,102162.63
2023-02-14T08:42:15.971Z,102249.13
2023-02-14T08:45:02.400Z,102172.31
2023-02-14T08:47:48.843Z,102171.31
2023-02-14T08:50:35.730Z,102255.72
2023-02-14T08:53:23.097Z,102201.59
2023-02-14T08:56:12.755Z,102191.75
2023-02-14T08:58:59.232Z,102165.28
2023-02-14T09:01:45.188Z,102139.34
2023-02-14T09:04:32.050Z,102178.31
2023-02-14T09:07:18.382Z,102109.97
2023-02-14T09:10:05.368Z,102129.25
2023-02-14T09:12:52.916Z,102249.50
2023-02-14T09:15:41.920Z,102259.34
2023-02-14T09:18:28.365Z,102183.16
2023-02-14T09:21:17.662Z,102159.88
2023-02-14T09:24:03.992Z,102188.50
2023-02-14T09:26:49.879Z,102222.44
2023-02-14T09:29:36.783Z,102206.34
2023-02-14T09:32:23.245Z,102179.28
2023-02-14T09:35:09.785Z,102141.09
2023-02-14T09:38:14.771Z,102266.53
2023-02-14T09:41:07.009Z,102139.94
2023-02-14T09:43:57.126Z,102260.28
2023-02-14T09:46:47.078Z,102238.59
2023-02-14T09:49:36.860Z,102241.34
2023-02-14T09:52:27.506Z,102186.84
2023-02-14T09:55:18.861Z,102231.38
2023-02-14T09:58:19.342Z,102171.66
2023-02-14T10:01:13.623Z,102191.50
2023-02-14T10:04:38.771Z,102277.84
2023-02-14T10:07:39.859Z,102177.84
2023-02-14T10:10:31.425Z,102219.03
2023-02-14T10:13:23.492Z,102272.28
2023-02-14T10:16:32.967Z,102270.38
2023-02-14T10:19:22.606Z,102191.94
2023-02-14T10:22:17.298Z,102178.53
2023-02-14T10:25:07.938Z,102123.16
2023-02-14T10:27:56.196Z,102169.47
2023-02-14T10:30:50.367Z,102118.16
2023-02-14T10:33:37.035Z,102173.69
2023-02-14T10:36:58.892Z,102251.88
2023-02-14T10:40:10.689Z,102244.06
2023-02-14T10:43:15.554Z,102258.28
2023-02-14T10:46:25.899Z,102255.56
2023-02-14T10:49:55.671Z,102174.09
2023-02-14T10:53:11.065Z,102123.78
2023-02-14T10:59:44.338Z,102117.06
2023-02-14T11:02:35.207Z,102240.50
2023-02-14T11:05:32.599Z,102245.28
2023-02-14T11:08:36.077Z,102222.25
2023-02-14T11:11:22.108Z,102238.94
2023-02-14T11:14:25.129Z,102144.94
2023-02-14T11:17:28.777Z,102152.28
2023-02-14T11:20:24.576Z,102244.25
2023-02-14T11:23:21.399Z,102167.59
2023-02-14T11:26:30.560Z,102195.16
2023-02-14T11:29:26.157Z,102138.50
2023-02-14T11:32:16.560Z,102164.25
2023-02-14T11:35:03.676Z,102231.72
2023-02-14T11:37:51.671Z,102154.66
2023-02-14T11:40:39.259Z,102146.97
2023-02-14T11:43:34.156Z,102134.72
2023-02-14T11:46:20.359Z,102227.09
2023-02-14T11:49:37.543Z,102147.31
2023-02-14T11:52:29.182Z,102170.13
2023-02-14T11:55:31.256Z,102210.25
2023-02-14T11:58:42.308Z,102238.50
2023-02-14T12:01:34.244Z,102182.09
2023-02-14T12:04:38.186Z,102215.47
2023-02-14T12:07:34.000Z,102224.22
2023-02-14T12:10:21.282Z,102222.97
2023-02-14T12:13:10.418Z,102223.31
2023-02-14T12:15:58.056Z,102136.81
2023-02-14T12:18:53.579Z,102139.91
2023-02-14T12:21:58.541Z,102167.44
2023-02-14T12:25:02.098Z,102125.94
2023-02-14T12:27:52.742Z,102168.63
2023-02-14T12:30:39.408Z,102171.75
2023-02-14T12:33:26.120Z,102156.47
2023-02-14T12:36:15.610Z,102196.38
2023-02-14T12:39:39.000Z,102203.25
2023-02-14T12:42:38.973Z,102123.75
2023-02-14T12:46:00.163Z,102143.22
2023-02-14T12:49:18.498Z,102187.38
2023-02-14T12:52:12.763Z,102115.59
2023-02-14T12:55:32.518Z,102169.94
2023-02-14T12:58:56.810Z,102183.69
2023-02-14T13:02:05.433Z,102090.81
2023-02-14T13:05:27.292Z,102114.78
2023-02-14T13:08:32.328Z,102191.88
2023-02-14T13:11:48.711Z,102044.97
2023-02-14T13:14:43.945Z,102185.63
2023-02-14T13:17:44.832Z,102070.22
2023-02-14T13:20:37.657Z,102185.63
2023-02-14T13:23:30.978Z,102139.28
2023-02-14T13:26:25.317Z,102120.91
2023-02-14T13:29:15.849Z,102094.66
2023-02-14T13:32:03.505Z,102176.41
2023-02-14T13:34:50.624Z,102146.88
2023-02-14T13:37:37.716Z,102176.88
2023-02-14T13:40:26.215Z,102139.41
2023-02-14T13:43:54.082Z,102079.78
2023-02-14T13:46:52.538Z,102104.56
2023-02-14T13:49:41.023Z,102117.94
2023-02-14T13:52:49.182Z,102045.16
2023-02-14T13:55:37.013Z,102100.19
2023-02-14T13:58:24.677Z,102145.00
2023-02-14T14:01:29.027Z,102098.53
2023-02-14T14:04:32.059Z,102158.97
2023-02-14T14:07:30.970Z,102134.59
2023-02-14T14:11:03.655Z,102074.50
2023-02-14T14:13:50.924Z,102133.75
2023-02-14T14:16:41.206Z,102106.00
2023-02-14T14:19:29.775Z,102143.13
2023-02-14T14:22:16.788Z,102009.13
2023-02-14T14:25:06.490Z,102041.75
2023-02-14T14:27:53.604Z,102064.00
2023-02-14T14:30:44.830Z,102103.16
2023-02-14T14:33:35.413Z,102056.63
2023-02-14T14:36:22.902Z,102066.38
2023-02-14T14:39:12.402Z,102146.03
2023-02-14T14:42:15.471Z,102024.66
2023-02-14T14:45:26.326Z,102011.84
2023-02-14T14:48:15.130Z,102040.63
2023-02-14T14:51:01.297Z,102086.97
2023-02-14T14:53:52.064Z,102042.16
2023-02-14T14:56:47.827Z,102024.00
2023-02-14T14:59:39.490Z,102035.28
2023-02-14T15:02:27.159Z,102076.28
2023-02-14T15:05:28.495Z,102043.44
2023-02-14T15:08:28.101Z,102128.19
2023-02-14T15:11:43.110Z,102060.81
2023-02-14T15:14:31.132Z,102065.41
2023-02-14T15:17:20.925Z,102065.19
2023-02-14T15:20:14.662Z,101982.06
2023-02-14T15:23:02.513Z,102112.47
2023-02-14T15:25:50.635Z,102027.66
2023-02-14T15:28:38.701Z,102037.94
2023-02-14T15:31:31.116Z,102061.63
2023-02-14T15:34:20.697Z,102016.81
2023-02-14T15:37:11.948Z,102090.00
2023-02-14T15:40:02.431Z,102019.69
2023-02-14T15:42:49.177Z,102100.91
2023-02-14T15:45:35.300Z,101970.03
2023-02-14T15:48:28.794Z,102036.75
2023-02-14T15:51:19.185Z,102027.97
2023-02-14T15:54:31.474Z,102040.28
2023-02-14T15:57:26.353Z,101982.44
2023-02-14T16:00:17.893Z,102014.66
2023-02-14T16:03:07.351Z,102044.09
2023-02-14T16:05:57.685Z,102014.22
2023-02-14T16:08:44.675Z,102069.56
2023-02-14T16:11:38.433Z,102107.91
2023-02-14T16:14:32.669Z,102090.97
2023-02-14T16:17:32.036Z,102018.31
2023-02-14T16:20:35.758Z,102092.56
2023-02-14T16:23:29.432Z,102075.16
2023-02-14T16:26:15.886Z,102031.97
2023-02-14T16:29:10.499Z,102035.34
2023-02-14T16:32:15.326Z,102022.03
2023-02-14T16:35:03.139Z,102038.34
2023-02-14T16:37:51.840Z,102093.09
2023-02-14T16:40:37.714Z,102060.03
2023-02-14T16:43:23.943Z,102041.75
2023-02-14T16:46:17.588Z,102106.06
2023-02-14T16:49:04.232Z,102055.75
2023-02-14T16:51:50.288Z,102129.84
2023-02-14T16:54:37.133Z,102084.28
2023-02-14T16:57:48.042Z,102133.84
2023-02-14T17:00:34.723Z,102131.78
2023-02-14T17:03:20.980Z,102052.53
2023-02-14T17:06:09.817Z,102052.78
2023-02-14T17:08:58.026Z,102065.22
2023-02-14T17:11:48.484Z,102038.59
2023-02-14T17:14:37.039Z,102131.03
2023-02-14T17:17:23.520Z,101998.06
2023-02-14T17:20:10.616Z,102123.53
2023-02-14T17:23:01.382Z,102099.81
2023-02-14T17:25:47.894Z,102014.47
2023-02-14T17:28:34.314Z,102083.56
2023-02-14T17:31:20.791Z,102115.66
2023-02-14T17:34:11.029Z,102147.09
2023-02-14T17:36:57.722Z,102146.66
2023-02-14T17:39:45.701Z,102027.59
2023-02-14T17:42:35.320Z,102146.47
2023-02-14T17:45:23.001Z,102110.84
2023-02-14T17:48:11.440Z,102149.97
2023-02-14T17:50:58.671Z,102053.16
2023-02-14T17:53:44.677Z,102071.47
2023-02-14T17:56:31.168Z,102081.03
2023-02-14T17:59:16.784Z,102135.59
2023-02-14T18:02:03.344Z,102047.69
2023-02-14T18:04:49.679Z,102024.78
2023-02-14T18:07:36.308Z,102136.19
2023-02-14T18:10:24.599Z,102138.47
2023-02-14T18:13:11.310Z,102047.25
2023-02-14T18:15:57.320Z,102136.19
2023-02-14T18:18:54.996Z,101970.56
2023-02-14T18:22:03.322Z,102047.88
2023-02-14T18:24:49.347Z,102133.25
2023-02-14T18:27:35.290Z,102120.56
2023-02-14T18:30:21.447Z,102140.31
2023-02-14T18:33:07.532Z,102053.47
2023-02-14T18:35:56.175Z,102123.03
2023-02-14T18:38:43.725Z,102110.94
2023-02-14T18:41:30.272Z,102003.41
2023-02-14T18:48:02.749Z,102130.28
2023-02-14T18:51:11.396Z,102119.44
2023-02-14T18:53:59.485Z,102127.97
2023-02-14T18:56:45.370Z,102112.50
2023-02-14T18:59:31.528Z,102082.47
2023-02-14T19:02:17.355Z,102028.97
2023-02-14T19:05:04.504Z,102099.34
2023-02-14T19:07:54.463Z,102125.44
2023-02-14T19:10:40.703Z,102076.84
2023-02-14T19:13:29.257Z,102069.34
2023-02-14T19:16:18.975Z,102056.19
2023-02-14T19:19:05.450Z,102119.13
2023-02-14T19:21:52.034Z,102108.09
2023-02-14T19:24:38.700Z,102049.75
2023-02-14T19:27:25.547Z,102044.31
2023-02-14T19:30:11.764Z,102084.06
2023-02-14T19:32:58.509Z,102030.34
2023-02-14T19:35:44.718Z,102108.66
2023-02-14T19:38:30.863Z,101989.25
2023-02-14T19:41:22.658Z,102087.63
2023-02-14T19:44:13.928Z,102006.91
2023-02-14T19:47:04.190Z,102120.66
2023-02-14T19:49:54.391Z,101976.34
2023-02-14T19:52:44.204Z,102117.91
2023-02-14T19:55:30.895Z,102114.81
2023-02-14T19:58:17.037Z,101973.31
2023-02-14T20:01:05.890Z,101978.31
2023-02-14T20:03:53.279Z,102120.91
2023-02-14T20:06:42.349Z,102037.03
2023-02-14T20:09:29.422Z,102074.56
2023-02-14T20:12:15.640Z,102042.81
2023-02-14T20:15:02.534Z,102040.75
2023-02-14T20:17:48.661Z,102106.88
2023-02-14T20:20:58.635Z,102032.28
2023-02-14T20:23:46.070Z,102024.50
2023-02-14T20:26:34.904Z,102017.44
2023-02-14T20:29:22.909Z,102113.75
2023-02-14T20:32:09.528Z,102066.78
2023-02-14T20:34:57.880Z,102016.78
2023-02-14T20:37:44.444Z,102118.53
2023-02-14T20:40:30.542Z,102021.78
2023-02-14T20:43:18.442Z,101985.94
2023-02-14T20:46:07.564Z,102088.94
2023-02-14T20:48:54.637Z,101991.91
2023-02-14T20:51:41.225Z,101969.84
2023-02-14T20:54:28.740Z,102010.03
2023-02-14T20:57:14.929Z,102047.19
2023-02-14T21:00:00.819Z,102085.94
2023-02-14T21:02:46.765Z,102102.59
2023-02-14T21:05:32.916Z,102093.06
2023-02-14T21:08:19.400Z,101979.06
2023-02-14T21:11:07.315Z,102002.34
2023-02-14T21:13:55.574Z,101996.53
2023-02-14T21:16:41.424Z,101948.00
2023-02-14T21:19:28.823Z,102054.66
2023-02-14T21:22:16.969Z,102083.16
2023-02-14T21:25:05.340Z,101989.09
2023-02-14T21:27:51.956Z,102045.75
2023-02-14T21:30:38.044Z,102006.38
2023-02-14T21:33:25.571Z,102023.75
2023-02-14T21:36:14.109Z,102094.03
2023-02-14T21:39:10.039Z,102056.47
2023-02-14T21:41:56.654Z,102031.88
2023-02-14T21:45:01.284Z,102037.56
2023-02-14T21:48:09.486Z,102084.91
2023-02-14T21:50:55.136Z,102053.84
2023-02-14T21:53:44.700Z,102085.25
2023-02-14T21:56:31.314Z,102005.59
2023-02-14T21:59:18.655Z,102020.34
2023-02-14T22:02:05.067Z,102088.16
2023-02-14T22:04:52.108Z,102030.34
2023-02-14T22:07:38.000Z,101980.34
2023-02-14T22:10:27.249Z,101999.97
2023-02-14T22:13:13.477Z,101937.22
2023-02-14T22:16:10.787Z,102012.41
2023-02-14T22:18:57.281Z,101962.75
2023-02-14T22:21:50.104Z,101990.41
2023-02-14T22:24:36.049Z,102028.09
2023-02-14T22:27:22.598Z,102041.81
2023-02-14T22:30:08.793Z,102040.97
2023-02-14T22:32:55.326Z,101957.44
2023-02-14T22:35:44.854Z,101912.78
2023-02-14T22:38:31.658Z,102058.56
2023-02-14T22:41:19.937Z,101998.59
2023-02-14T22:44:24.609Z,102005.00
2023-02-14T22:47:10.297Z,101997.25
2023-02-14T22:50:01.727Z,101972.94
2023-02-14T22:52:47.557Z,102046.94
2023-02-14T22:55:33.866Z,101986.72
2023-02-14T22:58:20.055Z,102005.81
2023-02-14T23:01:06.223Z,102062.09
2023-02-14T23:03:57.010Z,102029.25
2023-02-14T23:06:43.916Z,101934.41
2023-02-14T23:09:29.803Z,102039.22
2023-02-14T23:12:34.802Z,102011.91
2023-02-14T23:15:39.617Z,101939.94
2023-02-14T23:18:52.546Z,102039.44
2023-02-14T23:21:57.697Z,102050.16
2023-02-14T23:24:46.681Z,101948.72
2023-02-14T23:27:37.069Z,102034.44
2023-02-14T23:30:26.776Z,101909.53
2023-02-14T23:33:13.232Z,102027.03
2023-02-14T23:36:03.689Z,102034.47
2023-02-14T23:38:49.684Z,101982.72
2023-02-14T23:41:50.105Z,101980.63
2023-02-14T23:44:36.572Z,101984.47
2023-02-14T23:47:23.350Z,101954.88
2023-02-14T23:50:10.438Z,102021.16
2023-02-14T23:52:57.269Z,101982.88
2023-02-14T23:55:43.378Z,101900.84
2023-02-14T23:58:30.810Z,101965.72
